sensor_id;sensor_type;location;lat;lon;timestamp;noise_LAeq;noise_LA_min;noise_LA_max;noise_LA01;noise_LA95
64077;Laerm;51039;49.696;10.808;2023-08-08T00:01:47;37.92;36.28;43.91;;
64077;Laerm;51039;49.696;10.808;2023-08-08T00:04:13;37.95;36.29;42.92;;
64077;Laerm;51039;49.696;10.808;2023-08-08T00:06:38;37.94;36.12;46.73;;
64077;Laerm;51039;49.696;10.808;2023-08-08T00:09:04;38.11;36.22;51.03;;
64077;Laerm;51039;49.696;10.808;2023-08-08T00:11:29;38.06;36.25;42.54;;
64077;Laerm;51039;49.696;10.808;2023-08-08T00:13:55;38.02;36.28;43.52;;
64077;Laerm;51039;49.696;10.808;2023-08-08T00:16:21;37.97;36.22;44.26;;
64077;Laerm;51039;49.696;10.808;2023-08-08T00:18:47;38.17;35.91;45.56;;
64077;Laerm;51039;49.696;10.808;2023-08-08T00:21:14;38.09;36.27;45.61;;
64077;Laerm;51039;49.696;10.808;2023-08-08T00:23:39;38.07;36.26;42.34;;
64077;Laerm;51039;49.696;10.808;2023-08-08T00:26:05;37.96;36.00;46.02;;
64077;Laerm;51039;49.696;10.808;2023-08-08T00:28:30;38.01;36.22;43.90;;
64077;Laerm;51039;49.696;10.808;2023-08-08T00:30:55;37.99;36.24;46.36;;
64077;Laerm;51039;49.696;10.808;2023-08-08T00:33:21;38.08;36.13;47.25;;
64077;Laerm;51039;49.696;10.808;2023-08-08T00:35:46;38.07;36.30;45.79;;
64077;Laerm;51039;49.696;10.808;2023-08-08T00:38:11;38.09;36.41;45.31;;
64077;Laerm;51039;49.696;10.808;2023-08-08T00:40:37;38.13;36.38;45.76;;
64077;Laerm;51039;49.696;10.808;2023-08-08T00:43:02;38.18;36.42;44.59;;
64077;Laerm;51039;49.696;10.808;2023-08-08T00:45:28;38.19;36.31;49.34;;
64077;Laerm;51039;49.696;10.808;2023-08-08T00:47:53;38.20;36.33;48.96;;
64077;Laerm;51039;49.696;10.808;2023-08-08T00:50:18;38.16;36.40;43.66;;
64077;Laerm;51039;49.696;10.808;2023-08-08T00:52:44;38.12;36.13;45.98;;
64077;Laerm;51039;49.696;10.808;2023-08-08T00:55:10;38.17;36.42;45.11;;
64077;Laerm;51039;49.696;10.808;2023-08-08T00:57:35;38.15;36.35;44.41;;
64077;Laerm;51039;49.696;10.808;2023-08-08T01:00:05;38.21;36.24;45.92;;
64077;Laerm;51039;49.696;10.808;2023-08-08T01:02:35;38.23;36.46;46.11;;
64077;Laerm;51039;49.696;10.808;2023-08-08T01:05:01;38.18;36.44;46.71;;
64077;Laerm;51039;49.696;10.808;2023-08-08T01:07:54;38.32;36.51;46.98;;
64077;Laerm;51039;49.696;10.808;2023-08-08T01:10:25;38.20;36.66;48.85;;
64077;Laerm;51039;49.696;10.808;2023-08-08T01:12:55;38.16;36.49;45.68;;
64077;Laerm;51039;49.696;10.808;2023-08-08T01:15:22;38.10;36.46;41.68;;
64077;Laerm;51039;49.696;10.808;2023-08-08T01:17:49;38.14;36.49;45.73;;
64077;Laerm;51039;49.696;10.808;2023-08-08T01:20:16;38.21;36.70;45.60;;
64077;Laerm;51039;49.696;10.808;2023-08-08T01:22:55;38.22;36.74;42.55;;
64077;Laerm;51039;49.696;10.808;2023-08-08T01:25:21;38.27;36.56;42.87;;
64077;Laerm;51039;49.696;10.808;2023-08-08T01:27:47;38.29;36.83;42.85;;
64077;Laerm;51039;49.696;10.808;2023-08-08T01:30:12;38.21;36.73;44.34;;
64077;Laerm;51039;49.696;10.808;2023-08-08T01:32:38;38.30;36.52;42.20;;
64077;Laerm;51039;49.696;10.808;2023-08-08T01:35:03;38.25;36.50;44.43;;
64077;Laerm;51039;49.696;10.808;2023-08-08T01:37:32;38.26;36.69;42.17;;
64077;Laerm;51039;49.696;10.808;2023-08-08T01:40:01;38.34;36.63;47.60;;
64077;Laerm;51039;49.696;10.808;2023-08-08T01:42:27;38.24;36.52;44.10;;
64077;Laerm;51039;49.696;10.808;2023-08-08T01:44:55;38.28;36.64;46.12;;
64077;Laerm;51039;49.696;10.808;2023-08-08T01:47:20;38.13;36.48;41.60;;
64077;Laerm;51039;49.696;10.808;2023-08-08T01:49:46;38.17;36.59;47.71;;
64077;Laerm;51039;49.696;10.808;2023-08-08T01:52:11;38.08;36.63;47.33;;
64077;Laerm;51039;49.696;10.808;2023-08-08T01:54:37;38.12;36.49;43.74;;
64077;Laerm;51039;49.696;10.808;2023-08-08T01:57:02;38.22;36.52;50.61;;
64077;Laerm;51039;49.696;10.808;2023-08-08T01:59:28;38.11;36.33;45.37;;
64077;Laerm;51039;49.696;10.808;2023-08-08T02:01:53;38.05;36.41;46.24;;
64077;Laerm;51039;49.696;10.808;2023-08-08T02:04:19;38.07;36.46;41.09;;
64077;Laerm;51039;49.696;10.808;2023-08-08T02:06:45;38.11;36.36;46.83;;
64077;Laerm;51039;49.696;10.808;2023-08-08T02:09:10;37.98;36.47;45.61;;
64077;Laerm;51039;49.696;10.808;2023-08-08T02:11:35;38.22;36.47;47.21;;
64077;Laerm;51039;49.696;10.808;2023-08-08T02:14:01;38.18;36.29;44.32;;
64077;Laerm;51039;49.696;10.808;2023-08-08T02:16:26;38.70;-43.82;63.95;;
64077;Laerm;51039;49.696;10.808;2023-08-08T02:18:51;38.58;-41.24;64.03;;
64077;Laerm;51039;49.696;10.808;2023-08-08T02:21:17;38.09;36.44;47.42;;
64077;Laerm;51039;49.696;10.808;2023-08-08T02:23:42;38.24;36.17;43.83;;
64077;Laerm;51039;49.696;10.808;2023-08-08T02:26:08;38.26;36.47;45.63;;
64077;Laerm;51039;49.696;10.808;2023-08-08T02:28:33;38.24;36.51;42.85;;
64077;Laerm;51039;49.696;10.808;2023-08-08T02:30:59;38.31;36.61;42.20;;
64077;Laerm;51039;49.696;10.808;2023-08-08T02:33:24;38.23;36.37;41.74;;
64077;Laerm;51039;49.696;10.808;2023-08-08T02:35:50;38.20;36.59;43.82;;
64077;Laerm;51039;49.696;10.808;2023-08-08T02:38:15;38.24;36.57;46.22;;
64077;Laerm;51039;49.696;10.808;2023-08-08T02:40:40;38.32;36.71;47.83;;
64077;Laerm;51039;49.696;10.808;2023-08-08T02:43:06;38.10;36.61;45.74;;
64077;Laerm;51039;49.696;10.808;2023-08-08T02:45:31;38.27;36.72;51.20;;
64077;Laerm;51039;49.696;10.808;2023-08-08T02:47:56;38.43;36.68;44.16;;
64077;Laerm;51039;49.696;10.808;2023-08-08T02:50:22;38.42;36.42;44.40;;
64077;Laerm;51039;49.696;10.808;2023-08-08T02:52:47;38.22;36.33;42.65;;
64077;Laerm;51039;49.696;10.808;2023-08-08T02:55:12;38.35;36.64;42.46;;
64077;Laerm;51039;49.696;10.808;2023-08-08T02:57:38;38.42;36.62;46.76;;
64077;Laerm;51039;49.696;10.808;2023-08-08T03:00:03;38.39;36.56;46.35;;
64077;Laerm;51039;49.696;10.808;2023-08-08T03:02:30;38.32;36.37;47.62;;
64077;Laerm;51039;49.696;10.808;2023-08-08T03:04:55;38.31;36.69;44.00;;
64077;Laerm;51039;49.696;10.808;2023-08-08T03:07:20;38.34;36.80;42.16;;
64077;Laerm;51039;49.696;10.808;2023-08-08T03:09:46;38.26;36.48;48.46;;
64077;Laerm;51039;49.696;10.808;2023-08-08T03:12:11;38.25;36.28;45.93;;
64077;Laerm;51039;49.696;10.808;2023-08-08T03:14:36;38.17;36.50;44.76;;
64077;Laerm;51039;49.696;10.808;2023-08-08T03:17:02;38.08;36.50;42.58;;
64077;Laerm;51039;49.696;10.808;2023-08-08T03:19:27;38.07;36.33;43.58;;
64077;Laerm;51039;49.696;10.808;2023-08-08T03:21:52;38.20;36.42;47.21;;
64077;Laerm;51039;49.696;10.808;2023-08-08T03:24:18;38.10;36.25;42.53;;
64077;Laerm;51039;49.696;10.808;2023-08-08T03:26:43;38.22;36.67;44.45;;
64077;Laerm;51039;49.696;10.808;2023-08-08T03:29:08;38.12;36.53;43.58;;
64077;Laerm;51039;49.696;10.808;2023-08-08T03:31:36;38.20;36.52;44.97;;
64077;Laerm;51039;49.696;10.808;2023-08-08T03:34:01;38.42;36.50;44.96;;
64077;Laerm;51039;49.696;10.808;2023-08-08T03:36:26;38.38;36.50;43.71;;
64077;Laerm;51039;49.696;10.808;2023-08-08T03:38:52;38.32;36.41;46.16;;
64077;Laerm;51039;49.696;10.808;2023-08-08T03:41:17;38.20;36.47;45.14;;
64077;Laerm;51039;49.696;10.808;2023-08-08T03:43:42;38.34;36.41;45.24;;
64077;Laerm;51039;49.696;10.808;2023-08-08T03:46:08;38.24;36.67;47.20;;
64077;Laerm;51039;49.696;10.808;2023-08-08T03:48:33;38.25;36.51;46.09;;
64077;Laerm;51039;49.696;10.808;2023-08-08T03:50:59;38.18;36.45;44.14;;
64077;Laerm;51039;49.696;10.808;2023-08-08T03:53:24;38.29;36.44;46.09;;
64077;Laerm;51039;49.696;10.808;2023-08-08T03:55:50;37.91;36.45;44.43;;
64077;Laerm;51039;49.696;10.808;2023-08-08T03:58:15;38.09;36.38;46.47;;
64077;Laerm;51039;49.696;10.808;2023-08-08T04:00:40;38.41;36.39;46.68;;
64077;Laerm;51039;49.696;10.808;2023-08-08T04:03:13;38.65;36.45;48.25;;
64077;Laerm;51039;49.696;10.808;2023-08-08T04:05:39;38.53;36.34;45.93;;
64077;Laerm;51039;49.696;10.808;2023-08-08T04:08:05;38.35;36.53;44.24;;
64077;Laerm;51039;49.696;10.808;2023-08-08T04:10:30;38.65;36.37;44.75;;
64077;Laerm;51039;49.696;10.808;2023-08-08T04:12:55;38.32;36.55;47.80;;
64077;Laerm;51039;49.696;10.808;2023-08-08T04:15:21;38.42;36.24;47.17;;
64077;Laerm;51039;49.696;10.808;2023-08-08T04:17:46;38.39;36.28;46.63;;
64077;Laerm;51039;49.696;10.808;2023-08-08T04:20:11;38.49;36.42;43.86;;
64077;Laerm;51039;49.696;10.808;2023-08-08T04:22:37;38.30;36.47;43.25;;
64077;Laerm;51039;49.696;10.808;2023-08-08T04:25:03;38.43;36.32;46.28;;
64077;Laerm;51039;49.696;10.808;2023-08-08T04:27:29;38.40;36.36;44.54;;
64077;Laerm;51039;49.696;10.808;2023-08-08T04:29:54;38.23;36.49;45.44;;
64077;Laerm;51039;49.696;10.808;2023-08-08T04:32:20;38.25;35.93;47.77;;
64077;Laerm;51039;49.696;10.808;2023-08-08T04:34:45;38.10;36.30;46.16;;
64077;Laerm;51039;49.696;10.808;2023-08-08T04:37:10;38.20;36.26;48.21;;
64077;Laerm;51039;49.696;10.808;2023-08-08T04:39:36;38.28;36.48;43.46;;
64077;Laerm;51039;49.696;10.808;2023-08-08T04:42:01;38.19;36.47;45.18;;
64077;Laerm;51039;49.696;10.808;2023-08-08T04:44:26;38.37;36.44;47.48;;
64077;Laerm;51039;49.696;10.808;2023-08-08T04:46:52;38.23;36.53;48.09;;
64077;Laerm;51039;49.696;10.808;2023-08-08T04:49:17;38.38;36.54;44.89;;
64077;Laerm;51039;49.696;10.808;2023-08-08T04:51:42;38.20;36.54;45.82;;
64077;Laerm;51039;49.696;10.808;2023-08-08T04:54:08;38.14;36.59;45.44;;
64077;Laerm;51039;49.696;10.808;2023-08-08T04:56:33;38.31;36.44;43.65;;
64077;Laerm;51039;49.696;10.808;2023-08-08T04:58:58;38.16;36.48;43.00;;
64077;Laerm;51039;49.696;10.808;2023-08-08T05:01:24;38.23;36.53;45.46;;
64077;Laerm;51039;49.696;10.808;2023-08-08T05:03:49;38.53;36.35;42.64;;
64077;Laerm;51039;49.696;10.808;2023-08-08T05:06:15;38.71;36.69;46.97;;
64077;Laerm;51039;49.696;10.808;2023-08-08T05:08:40;39.03;36.95;49.96;;
64077;Laerm;51039;49.696;10.808;2023-08-08T05:11:05;39.10;37.34;45.95;;
64077;Laerm;51039;49.696;10.808;2023-08-08T05:13:31;40.14;38.08;48.44;;
64077;Laerm;51039;49.696;10.808;2023-08-08T05:15:56;40.45;38.76;47.77;;
64077;Laerm;51039;49.696;10.808;2023-08-08T05:18:21;41.08;39.23;46.13;;
64077;Laerm;51039;49.696;10.808;2023-08-08T05:20:47;41.86;40.00;47.45;;
64077;Laerm;51039;49.696;10.808;2023-08-08T05:23:12;42.51;40.99;50.47;;
64077;Laerm;51039;49.696;10.808;2023-08-08T05:25:37;43.24;41.43;47.79;;
64077;Laerm;51039;49.696;10.808;2023-08-08T05:28:03;44.16;42.38;48.37;;
64077;Laerm;51039;49.696;10.808;2023-08-08T05:30:28;44.81;43.09;51.39;;
64077;Laerm;51039;49.696;10.808;2023-08-08T05:32:54;45.16;43.30;50.26;;
64077;Laerm;51039;49.696;10.808;2023-08-08T05:35:19;45.46;43.68;53.91;;
64077;Laerm;51039;49.696;10.808;2023-08-08T05:37:44;45.50;43.79;50.74;;
64077;Laerm;51039;49.696;10.808;2023-08-08T05:40:10;45.72;43.83;49.79;;
64077;Laerm;51039;49.696;10.808;2023-08-08T05:42:39;45.72;44.23;49.73;;
64077;Laerm;51039;49.696;10.808;2023-08-08T05:45:05;45.72;44.22;50.85;;
64077;Laerm;51039;49.696;10.808;2023-08-08T05:47:31;45.72;44.15;49.56;;
64077;Laerm;51039;49.696;10.808;2023-08-08T05:49:56;45.72;44.02;50.14;;
64077;Laerm;51039;49.696;10.808;2023-08-08T05:52:22;45.94;44.22;50.92;;
64077;Laerm;51039;49.696;10.808;2023-08-08T05:54:47;46.04;44.44;50.20;;
64077;Laerm;51039;49.696;10.808;2023-08-08T05:57:13;45.91;44.43;50.49;;
64077;Laerm;51039;49.696;10.808;2023-08-08T05:59:38;45.98;44.31;55.29;;
64077;Laerm;51039;49.696;10.808;2023-08-08T06:02:04;45.96;44.33;51.44;;
64077;Laerm;51039;49.696;10.808;2023-08-08T06:04:29;45.94;44.42;51.87;;
64077;Laerm;51039;49.696;10.808;2023-08-08T06:06:55;45.90;44.37;53.91;;
64077;Laerm;51039;49.696;10.808;2023-08-08T06:09:20;46.00;44.42;53.02;;
64077;Laerm;51039;49.696;10.808;2023-08-08T06:11:46;45.95;44.37;50.71;;
64077;Laerm;51039;49.696;10.808;2023-08-08T06:14:11;45.88;44.37;49.69;;
64077;Laerm;51039;49.696;10.808;2023-08-08T06:16:36;45.91;44.40;54.09;;
64077;Laerm;51039;49.696;10.808;2023-08-08T06:19:02;45.95;44.44;52.21;;
64077;Laerm;51039;49.696;10.808;2023-08-08T06:21:28;45.98;44.47;51.59;;
64077;Laerm;51039;49.696;10.808;2023-08-08T06:23:53;46.15;44.43;53.67;;
64077;Laerm;51039;49.696;10.808;2023-08-08T06:26:20;46.06;44.48;54.65;;
64077;Laerm;51039;49.696;10.808;2023-08-08T06:28:46;45.82;44.15;54.58;;
64077;Laerm;51039;49.696;10.808;2023-08-08T06:31:12;45.83;44.35;51.65;;
64077;Laerm;51039;49.696;10.808;2023-08-08T06:33:38;45.68;44.32;49.63;;
64077;Laerm;51039;49.696;10.808;2023-08-08T06:36:03;45.59;44.20;50.00;;
64077;Laerm;51039;49.696;10.808;2023-08-08T06:38:29;45.65;43.94;50.41;;
64077;Laerm;51039;49.696;10.808;2023-08-08T06:40:59;45.61;44.19;49.65;;
64077;Laerm;51039;49.696;10.808;2023-08-08T06:43:24;45.52;43.92;51.23;;
64077;Laerm;51039;49.696;10.808;2023-08-08T06:45:49;45.57;44.02;51.15;;
64077;Laerm;51039;49.696;10.808;2023-08-08T06:48:15;45.52;44.05;50.42;;
64077;Laerm;51039;49.696;10.808;2023-08-08T06:50:40;45.54;43.87;49.21;;
64077;Laerm;51039;49.696;10.808;2023-08-08T06:53:05;45.48;44.15;49.99;;
64077;Laerm;51039;49.696;10.808;2023-08-08T06:55:31;45.48;44.09;48.69;;
64077;Laerm;51039;49.696;10.808;2023-08-08T06:57:56;45.48;44.09;48.85;;
64077;Laerm;51039;49.696;10.808;2023-08-08T07:00:22;45.44;44.02;48.31;;
64077;Laerm;51039;49.696;10.808;2023-08-08T07:02:47;45.45;43.75;52.36;;
64077;Laerm;51039;49.696;10.808;2023-08-08T07:05:12;45.37;43.85;49.45;;
64077;Laerm;51039;49.696;10.808;2023-08-08T07:07:38;45.35;43.99;49.91;;
64077;Laerm;51039;49.696;10.808;2023-08-08T07:10:03;45.28;43.78;49.53;;
64077;Laerm;51039;49.696;10.808;2023-08-08T07:12:30;45.29;43.78;50.32;;
64077;Laerm;51039;49.696;10.808;2023-08-08T07:14:55;45.23;43.54;50.36;;
64077;Laerm;51039;49.696;10.808;2023-08-08T07:17:21;45.24;43.84;48.66;;
64077;Laerm;51039;49.696;10.808;2023-08-08T07:19:46;45.20;43.88;48.29;;
64077;Laerm;51039;49.696;10.808;2023-08-08T07:22:11;45.14;43.70;48.47;;
64077;Laerm;51039;49.696;10.808;2023-08-08T07:24:36;45.14;43.70;52.69;;
64077;Laerm;51039;49.696;10.808;2023-08-08T07:27:04;45.12;43.53;48.03;;
64077;Laerm;51039;49.696;10.808;2023-08-08T07:29:29;45.04;43.58;48.64;;
64077;Laerm;51039;49.696;10.808;2023-08-08T07:31:54;44.98;42.99;47.98;;
64077;Laerm;51039;49.696;10.808;2023-08-08T07:34:20;44.99;43.29;49.73;;
64077;Laerm;51039;49.696;10.808;2023-08-08T07:36:46;44.94;43.48;48.66;;
64077;Laerm;51039;49.696;10.808;2023-08-08T07:39:12;44.94;43.57;47.43;;
64077;Laerm;51039;49.696;10.808;2023-08-08T07:41:37;44.90;43.32;49.23;;
64077;Laerm;51039;49.696;10.808;2023-08-08T07:44:03;44.85;43.35;48.59;;
64077;Laerm;51039;49.696;10.808;2023-08-08T07:46:29;44.89;43.32;48.36;;
64077;Laerm;51039;49.696;10.808;2023-08-08T07:48:54;44.88;43.30;49.33;;
64077;Laerm;51039;49.696;10.808;2023-08-08T07:51:20;44.74;43.31;47.40;;
64077;Laerm;51039;49.696;10.808;2023-08-08T07:53:45;44.67;43.13;49.20;;
64077;Laerm;51039;49.696;10.808;2023-08-08T07:56:10;44.75;43.24;50.97;;
64077;Laerm;51039;49.696;10.808;2023-08-08T07:58:36;44.64;43.24;49.26;;
64077;Laerm;51039;49.696;10.808;2023-08-08T08:01:01;44.51;43.09;47.49;;
64077;Laerm;51039;49.696;10.808;2023-08-08T08:03:27;44.59;43.10;49.20;;
64077;Laerm;51039;49.696;10.808;2023-08-08T08:05:53;44.70;43.12;49.64;;
64077;Laerm;51039;49.696;10.808;2023-08-08T08:08:18;44.73;43.23;48.27;;
64077;Laerm;51039;49.696;10.808;2023-08-08T08:10:43;44.73;43.17;49.03;;
64077;Laerm;51039;49.696;10.808;2023-08-08T08:13:10;44.67;43.02;50.96;;
64077;Laerm;51039;49.696;10.808;2023-08-08T08:15:37;44.61;43.06;49.85;;
64077;Laerm;51039;49.696;10.808;2023-08-08T08:18:02;44.60;43.20;50.36;;
64077;Laerm;51039;49.696;10.808;2023-08-08T08:20:28;44.59;43.11;50.52;;
64077;Laerm;51039;49.696;10.808;2023-08-08T08:22:53;44.44;43.02;52.05;;
64077;Laerm;51039;49.696;10.808;2023-08-08T08:25:19;44.31;42.94;49.25;;
64077;Laerm;51039;49.696;10.808;2023-08-08T08:27:44;44.42;42.96;50.99;;
64077;Laerm;51039;49.696;10.808;2023-08-08T08:30:10;44.39;43.07;51.89;;
64077;Laerm;51039;49.696;10.808;2023-08-08T08:32:36;44.19;42.68;46.73;;
64077;Laerm;51039;49.696;10.808;2023-08-08T08:35:03;44.14;42.84;49.08;;
64077;Laerm;51039;49.696;10.808;2023-08-08T08:37:29;44.09;42.72;45.65;;
64077;Laerm;51039;49.696;10.808;2023-08-08T08:39:55;44.23;42.55;48.85;;
64077;Laerm;51039;49.696;10.808;2023-08-08T08:42:21;44.24;42.66;48.96;;
64077;Laerm;51039;49.696;10.808;2023-08-08T08:44:47;44.25;42.48;46.65;;
64077;Laerm;51039;49.696;10.808;2023-08-08T08:47:17;44.28;42.73;46.15;;
64077;Laerm;51039;49.696;10.808;2023-08-08T08:49:43;44.29;42.80;46.83;;
64077;Laerm;51039;49.696;10.808;2023-08-08T08:52:11;44.36;43.05;46.19;;
64077;Laerm;51039;49.696;10.808;2023-08-08T08:54:36;44.23;42.56;46.16;;
64077;Laerm;51039;49.696;10.808;2023-08-08T08:57:02;44.28;42.73;46.17;;
64077;Laerm;51039;49.696;10.808;2023-08-08T08:59:27;44.32;43.01;50.77;;
64077;Laerm;51039;49.696;10.808;2023-08-08T09:01:53;44.32;42.97;46.91;;
64077;Laerm;51039;49.696;10.808;2023-08-08T09:04:20;44.27;42.66;47.26;;
64077;Laerm;51039;49.696;10.808;2023-08-08T09:06:47;44.19;42.94;47.91;;
64077;Laerm;51039;49.696;10.808;2023-08-08T09:09:13;44.23;42.67;46.29;;
64077;Laerm;51039;49.696;10.808;2023-08-08T09:11:42;44.16;42.72;46.41;;
64077;Laerm;51039;49.696;10.808;2023-08-08T09:14:20;44.16;42.80;45.93;;
64077;Laerm;51039;49.696;10.808;2023-08-08T09:16:47;44.18;42.59;47.78;;
64077;Laerm;51039;49.696;10.808;2023-08-08T09:19:13;43.96;42.44;46.12;;
64077;Laerm;51039;49.696;10.808;2023-08-08T09:21:39;43.75;42.30;45.81;;
64077;Laerm;51039;49.696;10.808;2023-08-08T09:24:04;43.73;42.20;45.90;;
64077;Laerm;51039;49.696;10.808;2023-08-08T09:26:30;43.73;42.18;45.80;;
64077;Laerm;51039;49.696;10.808;2023-08-08T09:28:55;43.67;42.36;45.12;;
64077;Laerm;51039;49.696;10.808;2023-08-08T09:31:20;43.74;42.06;45.36;;
64077;Laerm;51039;49.696;10.808;2023-08-08T09:33:46;43.76;42.33;45.44;;
64077;Laerm;51039;49.696;10.808;2023-08-08T09:36:17;43.92;42.45;46.08;;
64077;Laerm;51039;49.696;10.808;2023-08-08T09:38:44;43.97;42.26;45.73;;
64077;Laerm;51039;49.696;10.808;2023-08-08T09:41:10;44.05;42.57;45.82;;
64077;Laerm;51039;49.696;10.808;2023-08-08T09:43:36;43.95;42.23;48.01;;
64077;Laerm;51039;49.696;10.808;2023-08-08T09:46:01;43.98;42.55;46.74;;
64077;Laerm;51039;49.696;10.808;2023-08-08T09:48:31;43.77;42.43;52.08;;
64077;Laerm;51039;49.696;10.808;2023-08-08T09:50:58;43.71;42.04;46.24;;
64077;Laerm;51039;49.696;10.808;2023-08-08T09:53:26;43.94;42.58;45.86;;
64077;Laerm;51039;49.696;10.808;2023-08-08T09:55:54;43.86;42.12;51.71;;
64077;Laerm;51039;49.696;10.808;2023-08-08T09:58:20;43.84;42.43;45.54;;
64077;Laerm;51039;49.696;10.808;2023-08-08T10:00:46;43.74;42.21;45.05;;
64077;Laerm;51039;49.696;10.808;2023-08-08T10:03:13;43.78;42.25;47.05;;
64077;Laerm;51039;49.696;10.808;2023-08-08T10:05:39;43.84;42.37;45.44;;
64077;Laerm;51039;49.696;10.808;2023-08-08T10:08:04;43.83;42.47;45.47;;
64077;Laerm;51039;49.696;10.808;2023-08-08T10:10:31;43.95;42.69;45.41;;
64077;Laerm;51039;49.696;10.808;2023-08-08T10:12:56;43.91;42.48;48.14;;
64077;Laerm;51039;49.696;10.808;2023-08-08T10:15:26;43.69;42.26;45.06;;
64077;Laerm;51039;49.696;10.808;2023-08-08T10:17:56;43.84;42.22;45.36;;
64077;Laerm;51039;49.696;10.808;2023-08-08T10:20:24;43.80;42.54;46.83;;
64077;Laerm;51039;49.696;10.808;2023-08-08T10:22:52;43.87;42.50;46.24;;
64077;Laerm;51039;49.696;10.808;2023-08-08T10:25:26;43.90;42.43;47.57;;
64077;Laerm;51039;49.696;10.808;2023-08-08T10:28:22;43.90;42.45;45.95;;
64077;Laerm;51039;49.696;10.808;2023-08-08T10:30:52;43.87;42.33;46.40;;
64077;Laerm;51039;49.696;10.808;2023-08-08T10:33:26;43.84;42.37;45.66;;
64077;Laerm;51039;49.696;10.808;2023-08-08T10:36:05;43.89;42.30;50.02;;
64077;Laerm;51039;49.696;10.808;2023-08-08T10:38:48;43.84;42.41;45.98;;
64077;Laerm;51039;49.696;10.808;2023-08-08T10:41:19;43.76;42.41;47.39;;
64077;Laerm;51039;49.696;10.808;2023-08-08T10:43:52;43.80;42.28;45.32;;
64077;Laerm;51039;49.696;10.808;2023-08-08T10:46:28;43.84;42.10;45.41;;
64077;Laerm;51039;49.696;10.808;2023-08-08T10:48:56;43.78;42.01;45.09;;
64077;Laerm;51039;49.696;10.808;2023-08-08T10:51:22;43.73;42.29;45.48;;
64077;Laerm;51039;49.696;10.808;2023-08-08T10:53:51;43.75;41.77;45.13;;
64077;Laerm;51039;49.696;10.808;2023-08-08T10:56:18;43.69;42.08;45.90;;
64077;Laerm;51039;49.696;10.808;2023-08-08T10:58:47;43.71;42.02;45.46;;
64077;Laerm;51039;49.696;10.808;2023-08-08T11:01:13;43.68;42.30;45.04;;
64077;Laerm;51039;49.696;10.808;2023-08-08T11:03:40;43.70;42.13;45.40;;
64077;Laerm;51039;49.696;10.808;2023-08-08T11:06:10;43.75;42.05;46.76;;
64077;Laerm;51039;49.696;10.808;2023-08-08T11:08:36;43.74;42.17;45.64;;
64077;Laerm;51039;49.696;10.808;2023-08-08T11:11:04;43.79;42.13;45.84;;
64077;Laerm;51039;49.696;10.808;2023-08-08T11:13:29;43.87;42.17;46.80;;
64077;Laerm;51039;49.696;10.808;2023-08-08T11:15:55;43.87;42.53;45.99;;
64077;Laerm;51039;49.696;10.808;2023-08-08T11:18:21;43.90;41.70;46.86;;
64077;Laerm;51039;49.696;10.808;2023-08-08T11:20:47;43.93;42.30;45.22;;
64077;Laerm;51039;49.696;10.808;2023-08-08T11:23:13;43.97;42.66;45.77;;
64077;Laerm;51039;49.696;10.808;2023-08-08T11:25:42;43.93;42.46;45.32;;
64077;Laerm;51039;49.696;10.808;2023-08-08T11:28:09;43.92;42.54;45.21;;
64077;Laerm;51039;49.696;10.808;2023-08-08T11:30:38;43.97;42.28;45.29;;
64077;Laerm;51039;49.696;10.808;2023-08-08T11:33:05;43.99;42.45;45.31;;
64077;Laerm;51039;49.696;10.808;2023-08-08T11:35:30;43.96;42.46;45.54;;
64077;Laerm;51039;49.696;10.808;2023-08-08T11:37:58;43.93;42.23;45.22;;
64077;Laerm;51039;49.696;10.808;2023-08-08T11:40:25;44.00;42.60;45.46;;
64077;Laerm;51039;49.696;10.808;2023-08-08T11:42:52;43.96;42.46;45.31;;
64077;Laerm;51039;49.696;10.808;2023-08-08T11:45:18;43.99;42.55;45.35;;
64077;Laerm;51039;49.696;10.808;2023-08-08T11:47:48;43.95;42.44;45.31;;
64077;Laerm;51039;49.696;10.808;2023-08-08T11:50:14;43.93;42.30;45.44;;
64077;Laerm;51039;49.696;10.808;2023-08-08T11:52:41;43.96;42.12;45.55;;
64077;Laerm;51039;49.696;10.808;2023-08-08T11:55:08;43.95;42.45;45.21;;
64077;Laerm;51039;49.696;10.808;2023-08-08T11:57:36;43.99;42.56;45.36;;
64077;Laerm;51039;49.696;10.808;2023-08-08T12:00:07;43.98;42.42;45.69;;
64077;Laerm;51039;49.696;10.808;2023-08-08T12:02:33;44.03;42.48;45.36;;
64077;Laerm;51039;49.696;10.808;2023-08-08T12:05:13;44.01;42.59;46.37;;
64077;Laerm;51039;49.696;10.808;2023-08-08T12:07:42;44.02;42.59;45.41;;
64077;Laerm;51039;49.696;10.808;2023-08-08T12:10:21;44.07;42.45;45.38;;
64077;Laerm;51039;49.696;10.808;2023-08-08T12:12:55;44.06;42.50;45.65;;
64077;Laerm;51039;49.696;10.808;2023-08-08T12:15:23;44.05;42.60;46.42;;
64077;Laerm;51039;49.696;10.808;2023-08-08T12:17:49;44.03;42.63;46.16;;
64077;Laerm;51039;49.696;10.808;2023-08-08T12:20:15;44.05;42.44;45.42;;
64077;Laerm;51039;49.696;10.808;2023-08-08T12:22:41;44.09;42.55;45.56;;
64077;Laerm;51039;49.696;10.808;2023-08-08T12:25:06;44.04;42.51;46.42;;
64077;Laerm;51039;49.696;10.808;2023-08-08T12:27:33;44.03;42.40;45.41;;
64077;Laerm;51039;49.696;10.808;2023-08-08T12:29:58;44.00;42.67;45.57;;
64077;Laerm;51039;49.696;10.808;2023-08-08T12:32:26;44.02;42.42;45.54;;
64077;Laerm;51039;49.696;10.808;2023-08-08T12:34:52;44.03;42.50;45.62;;
64077;Laerm;51039;49.696;10.808;2023-08-08T12:37:17;44.07;42.73;45.52;;
64077;Laerm;51039;49.696;10.808;2023-08-08T12:39:43;44.07;42.72;45.48;;
64077;Laerm;51039;49.696;10.808;2023-08-08T12:42:08;44.10;42.54;45.64;;
64077;Laerm;51039;49.696;10.808;2023-08-08T12:44:33;44.01;42.53;46.32;;
64077;Laerm;51039;49.696;10.808;2023-08-08T12:46:59;43.99;42.32;45.74;;
64077;Laerm;51039;49.696;10.808;2023-08-08T12:49:24;43.97;42.41;45.34;;
64077;Laerm;51039;49.696;10.808;2023-08-08T12:51:50;43.97;42.51;46.36;;
64077;Laerm;51039;49.696;10.808;2023-08-08T12:54:16;43.98;42.63;45.81;;
64077;Laerm;51039;49.696;10.808;2023-08-08T12:56:42;44.07;42.66;45.32;;
64077;Laerm;51039;49.696;10.808;2023-08-08T12:59:08;44.10;42.71;48.32;;
64077;Laerm;51039;49.696;10.808;2023-08-08T13:01:33;44.12;42.68;46.49;;
64077;Laerm;51039;49.696;10.808;2023-08-08T13:03:59;44.16;42.73;46.07;;
64077;Laerm;51039;49.696;10.808;2023-08-08T13:06:24;44.12;42.71;46.11;;
64077;Laerm;51039;49.696;10.808;2023-08-08T13:08:49;44.11;42.69;45.61;;
64077;Laerm;51039;49.696;10.808;2023-08-08T13:11:15;44.13;42.72;45.45;;
64077;Laerm;51039;49.696;10.808;2023-08-08T13:13:40;44.14;42.55;45.46;;
64077;Laerm;51039;49.696;10.808;2023-08-08T13:16:06;44.12;42.56;45.37;;
64077;Laerm;51039;49.696;10.808;2023-08-08T13:18:31;44.12;42.84;45.40;;
64077;Laerm;51039;49.696;10.808;2023-08-08T13:20:56;44.03;42.59;45.39;;
64077;Laerm;51039;49.696;10.808;2023-08-08T13:23:22;43.99;42.34;45.25;;
64077;Laerm;51039;49.696;10.808;2023-08-08T13:25:47;43.99;42.62;45.50;;
64077;Laerm;51039;49.696;10.808;2023-08-08T13:28:14;43.98;42.50;45.41;;